»·PEaware :: CAX378 CN64-L71

CAX378 :: CN64-L71

FLIGHT INFORMATION

Flight Status: Arrived
Operator:
California Airlines (website)
More flights by this operator :: More flights under this callsign
Pilot: Scott M. (2435)
Aircraft: BEECH AIRCRAFT BARON
(BE58)
More flights by this aircraft type
Origin: CN64
Destination: L71 California City Mun
United States
More flights between these airports :: More routes between these airports
Route: TNP YUCCA PMD
File this flight plan on PilotEdge
Remarks: VFR
Altitude:
(Current/Filed)
10,500ft
Speed:
(Current/Filed)
175kts
Departed: 14-Apr-15 02:43 PM
Arrived: 14-Apr-15 03:55 PM
Distance/Time
Traveled:
Not Available
Distance/Time
To Go:
Arrived

Flight Plot

Page will automatically refresh every two minutes.

Flight plan parsing failed; only flown route is shown


Map Options




Map Legend


Flown Route
Filed Route
Departure Airport
Arrival Airport
Navaid (VOR, NDB)
Fix

Horizontal Profiles

Position Reports

Time Latitude Longitude Heading Altitude Ground
Speed
14-Apr-15 14:28 33.754120 -115.328523 103 562ft 0kts
14-Apr-15 14:29 33.754120 -115.328523 103 562ft 0kts
14-Apr-15 14:30 33.754120 -115.328523 103 562ft 0kts
14-Apr-15 14:31 33.754120 -115.328523 103 562ft 0kts
14-Apr-15 14:32 33.754120 -115.328523 103 562ft 0kts
14-Apr-15 14:33 33.754120 -115.328523 103 562ft 0kts
14-Apr-15 14:34 33.754076 -115.328330 116 562ft 0kts
14-Apr-15 14:36 33.753401 -115.328326 195 562ft 9kts
14-Apr-15 14:37 33.749773 -115.329454 194 562ft 16kts
14-Apr-15 14:38 33.746766 -115.329554 156 562ft 0kts
14-Apr-15 14:39 33.747211 -115.327069 66 562ft 19kts
14-Apr-15 14:40 33.749610 -115.320183 67 562ft 20kts
14-Apr-15 14:41 33.750338 -115.318080 248 562ft 25kts
14-Apr-15 14:41 33.740791 -115.340402 243 1260ft 109kts
14-Apr-15 14:42 33.744317 -115.372075 309 2616ft 113kts
14-Apr-15 14:44 33.767360 -115.407095 311 4144ft 118kts
14-Apr-15 14:44 33.784417 -115.433279 303 5203ft 122kts
14-Apr-15 14:45 33.807093 -115.463029 319 6432ft 122kts
14-Apr-15 14:46 33.832929 -115.488995 320 7578ft 121kts
14-Apr-15 14:47 33.858535 -115.514691 320 8627ft 119kts
14-Apr-15 14:48 33.883906 -115.540140 320 9585ft 118kts
14-Apr-15 14:49 33.909335 -115.565648 320 10368ft 127kts
14-Apr-15 14:50 33.942458 -115.598783 320 10406ft 175kts
14-Apr-15 14:51 33.982187 -115.638689 320 10442ft 192kts
14-Apr-15 14:52 34.023284 -115.680889 320 10483ft 195kts
14-Apr-15 14:53 34.064484 -115.723200 320 10526ft 194kts
14-Apr-15 14:54 34.092806 -115.777468 297 10549ft 194kts
14-Apr-15 14:55 34.111488 -115.838278 274 10551ft 196kts
14-Apr-15 14:56 34.112901 -115.904282 273 10549ft 197kts
14-Apr-15 14:57 34.113661 -115.970790 273 10549ft 198kts
14-Apr-15 14:58 34.114181 -116.037569 273 10549ft 198kts
14-Apr-15 14:59 34.114598 -116.103776 272 10549ft 199kts
14-Apr-15 15:00 34.114914 -116.168421 273 10548ft 199kts
14-Apr-15 15:01 34.115316 -116.235813 272 10517ft 202kts
14-Apr-15 15:02 34.115651 -116.304117 271 10484ft 204kts
14-Apr-15 15:03 34.115928 -116.372982 271 10451ft 206kts
14-Apr-15 15:04 34.116129 -116.442310 270 10429ft 206kts
14-Apr-15 15:05 34.121896 -116.510208 293 10421ft 204kts
14-Apr-15 15:06 34.144855 -116.573046 294 10417ft 204kts
14-Apr-15 15:07 34.176213 -116.629202 310 10513ft 200kts
14-Apr-15 15:08 34.210410 -116.683639 305 10371ft 208kts
14-Apr-15 15:09 34.232483 -116.747572 285 10351ft 205kts
14-Apr-15 15:10 34.246742 -116.813962 282 10283ft 205kts
14-Apr-15 15:11 34.258631 -116.880557 280 10300ft 195kts
14-Apr-15 15:12 34.275692 -116.942200 289 10394ft 196kts
14-Apr-15 15:13 34.296386 -117.003544 287 10323ft 198kts
14-Apr-15 15:14 34.315784 -117.065784 286 10329ft 198kts
14-Apr-15 15:15 34.334943 -117.127670 286 10328ft 197kts
14-Apr-15 15:16 34.353204 -117.188885 286 10397ft 194kts
14-Apr-15 15:17 34.372632 -117.248737 286 10525ft 187kts
14-Apr-15 15:18 34.387580 -117.307232 285 10609ft 180kts
14-Apr-15 15:19 34.401394 -117.364652 285 10440ft 180kts
14-Apr-15 15:20 34.418942 -117.420558 299 10230ft 178kts
14-Apr-15 15:21 34.437614 -117.472392 289 10506ft 161kts
14-Apr-15 15:22 34.453615 -117.523717 292 10489ft 167kts
14-Apr-15 15:23 34.471713 -117.575615 291 10487ft 167kts
14-Apr-15 15:24 34.489262 -117.627953 291 10492ft 167kts
14-Apr-15 15:25 34.506672 -117.680674 291 10497ft 169kts
14-Apr-15 15:26 34.524030 -117.733736 291 10511ft 169kts
14-Apr-15 15:27 34.541403 -117.786994 291 10519ft 169kts
14-Apr-15 15:28 34.558079 -117.837640 292 10535ft 167kts
14-Apr-15 15:29 34.575227 -117.889807 292 10536ft 166kts
14-Apr-15 15:30 34.592186 -117.941773 292 10535ft 165kts
14-Apr-15 15:31 34.609050 -117.993877 292 10532ft 165kts
14-Apr-15 15:32 34.625850 -118.045806 292 10533ft 165kts
14-Apr-15 15:33 34.652991 -118.089871 313 10536ft 168kts
14-Apr-15 15:34 34.687166 -118.126855 312 10255ft 179kts
14-Apr-15 15:35 34.725188 -118.167634 312 9321ft 177kts
14-Apr-15 15:36 34.761300 -118.205926 313 8355ft 170kts
14-Apr-15 15:37 34.796425 -118.243667 313 7398ft 167kts
14-Apr-15 15:38 34.831426 -118.280967 313 6446ft 167kts
14-Apr-15 15:40 34.882197 -118.273914 4 5444ft 197kts
14-Apr-15 15:41 34.934502 -118.257512 4 4560ft 190kts
14-Apr-15 15:42 34.981250 -118.245165 347 4513ft 152kts
14-Apr-15 15:43 35.016235 -118.263430 333 4524ft 133kts
14-Apr-15 15:44 35.054167 -118.259781 359 4537ft 136kts
14-Apr-15 15:45 35.091149 -118.249020 16 4509ft 143kts
14-Apr-15 15:45 35.120948 -118.230164 15 4524ft 151kts
14-Apr-15 15:47 35.148651 -118.178871 56 4357ft 170kts
14-Apr-15 15:47 35.156145 -118.130881 88 4139ft 181kts
14-Apr-15 15:48 35.156305 -118.071795 78 3484ft 172kts
14-Apr-15 15:49 35.167339 -118.014021 81 3352ft 178kts
14-Apr-15 15:50 35.167978 -117.964333 157 3134ft 125kts
14-Apr-15 15:51 35.157264 -117.986254 267 2827ft 104kts
14-Apr-15 15:52 35.151478 -118.015694 252 2438ft 56kts
14-Apr-15 15:53 35.149970 -118.022670 246 2438ft 12kts
14-Apr-15 15:54 35.150171 -118.018493 77 2438ft 29kts
14-Apr-15 15:55 35.150016 -118.015255 83 2439ft 0kts
14-Apr-15 15:56 35.150016 -118.015255 83 2439ft 0kts
14-Apr-15 15:57 35.150016 -118.015255 83 2439ft 0kts
14-Apr-15 15:58 35.150016 -118.015255 83 2439ft 0kts
14-Apr-15 15:59 35.150016 -118.015255 83 2439ft 0kts
14-Apr-15 16:00 35.150016 -118.015255 83 2439ft 0kts
14-Apr-15 16:01 35.150016 -118.015255 83 2439ft 0kts
14-Apr-15 16:02 35.150016 -118.015255 83 2439ft 0kts
14-Apr-15 16:03 35.150016 -118.015255 83 2439ft 0kts
14-Apr-15 16:04 35.150016 -118.015255 83 2439ft 0kts
14-Apr-15 16:05 35.150016 -118.015255 83 2439ft 0kts

Navigation Log

Ident Type
Flight plan parsing failed, navigation log unavailable